Catherine — WCW3931 — position and weather

sailwx.info

Track history (hours):
 
Tides and Currents Weather Stations Pressure Air Temp Water Temp Dewpoint Dewpoint Depression Visibility Wind Speed Wind Dir Waves Ship Positions

Catherine

Owner: BLESSEY ENTERPRISES INC, HARAHAN, LA. More information available from US FCC via Universal Licensing System.

Last reported at 2018-Feb-22 22:30 UTC. Time now 2018-Feb-22 22:57 UTC.
Position N 29°60' W 093°55'.

Length 21 m; draft 3.3 m.

Type: Tug. MMSI: 366935380.

Date/timePositionNaut miles runAvg speedWind from/ knotsBaromVisibWave heightAir tempDewpointWater temp
2018-Feb-22 22:30N 29°60' W 093°55'0 0.0
2018-Feb-22 22:00N 29°60' W 093°55'0 0.0
2018-Feb-22 21:30N 29°60' W 093°55'0 0.0
2018-Feb-22 21:00N 29°60' W 093°55'0 0.0
2018-Feb-22 20:30N 29°60' W 093°55'0 0.0
2018-Feb-22 20:00N 29°60' W 093°55'1 1.8
2018-Feb-22 19:30N 29°59' W 093°54'3 5.6
2018-Feb-22 19:01N 29°58' W 093°51'3 6.5
2018-Feb-22 18:30N 29°55' W 093°53'3 6.7
2018-Feb-22 18:00N 29°53' W 093°55'3 6.2
2018-Feb-22 17:30N 29°50' W 093°57'2 3.5
2018-Feb-22 17:00N 29°49' W 093°59'0 0.2
2018-Feb-22 16:30N 29°49' W 093°59'3 5.4
2018-Feb-22 16:00N 29°47' W 094°01'3 5.3
2018-Feb-22 15:30N 29°45' W 094°04'3 5.1
2018-Feb-22 15:00N 29°44' W 094°06'2 4.9
2018-Feb-22 14:30N 29°42' W 094°08'3 5.1
2018-Feb-22 14:00N 29°41' W 094°11'3 5.1
2018-Feb-22 13:30N 29°40' W 094°13'0 0.3
2018-Feb-22 13:00N 29°40' W 094°14'0 0.0
2018-Feb-22 12:30N 29°40' W 094°14'0 0.0
2018-Feb-22 12:00N 29°40' W 094°14'0 0.0
2018-Feb-22 11:30N 29°40' W 094°14'0 0.0
2018-Feb-22 11:00N 29°40' W 094°14'0 0.0
2018-Feb-22 10:30N 29°40' W 094°14'0 0.0
2018-Feb-22 10:00N 29°40' W 094°14'0 0.0
2018-Feb-22 09:30N 29°40' W 094°14'0 0.0
2018-Feb-22 09:00N 29°40' W 094°14'0 0.0
2018-Feb-22 08:30N 29°40' W 094°14'0 0.0
2018-Feb-22 08:00N 29°40' W 094°14'0 0.0
2018-Feb-22 07:30N 29°40' W 094°14'0 0.0
2018-Feb-22 07:00N 29°40' W 094°14'0 0.0
2018-Feb-22 06:30N 29°40' W 094°14'0 0.0
2018-Feb-22 06:00N 29°40' W 094°14'0 0.0
2018-Feb-22 05:30N 29°40' W 094°14'0 0.0
2018-Feb-22 05:00N 29°40' W 094°14'0 0.0
2018-Feb-22 04:30N 29°40' W 094°14'0 0.0
2018-Feb-22 04:01N 29°40' W 094°14'0 0.0
2018-Feb-22 03:30N 29°40' W 094°14'0 0.0
2018-Feb-22 03:00N 29°40' W 094°14'0 0.0
2018-Feb-22 02:30N 29°40' W 094°14'0 0.0
2018-Feb-22 02:00N 29°40' W 094°14'0 0.2
2018-Feb-22 01:30N 29°40' W 094°14'3 5.9
2018-Feb-22 01:00N 29°39' W 094°17'3 5.7
2018-Feb-22 00:28N 29°37' W 094°20'3 5.7
2018-Feb-21 23:53N 29°36' W 094°23'2 0.8
2018-Feb-21 22:03N 29°35' W 094°25'0 0.0
2018-Feb-21 21:54N 29°35' W 094°25'2 3.8
2018-Feb-21 21:24N 29°34' W 094°27'95 3.2
2018-Feb-20 15:39N 28°42' W 095°57'6 1.2
2018-Feb-20 10:39N 28°39' W 096°04'1 5.8
2018-Feb-20 10:30N 28°38' W 096°05'12 5.4
2018-Feb-20 08:15N 28°31' W 096°16'9 6.0
2018-Feb-20 06:50N 28°27' W 096°24'2 5.9
2018-Feb-20 06:26N 28°26' W 096°26'2 3.8
2018-Feb-20 05:58N 28°25' W 096°28'0 0.5
2018-Feb-20 05:30N 28°25' W 096°28'0 0.0
2018-Feb-20 04:55N 28°25' W 096°28'16 2.5
2018-Feb-19 22:46N 28°17' W 096°44'2 6.8
2018-Feb-19 22:28N 28°15' W 096°45'2 1.6
2018-Feb-19 20:59N 28°14' W 096°48'3 5.2
2018-Feb-19 20:30N 28°12' W 096°50'3 6.9
2018-Feb-19 20:00N 28°10' W 096°53'4 6.8
2018-Feb-19 19:29N 28°07' W 096°55'3 6.8
2018-Feb-19 18:59N 28°05' W 096°58'3 6.9
2018-Feb-19 18:30N 28°02' W 096°60'9 6.3
2018-Feb-19 17:05N 27°53' W 097°03'1 7.4
2018-Feb-19 17:00N 27°53' W 097°03'2 3.8
2018-Feb-19 16:30N 27°51' W 097°04'0 0.9
2018-Feb-19 15:59N 27°51' W 097°03'7 0.5
2018-Feb-19 01:40N 27°50' W 097°11'11 4.8
2018-Feb-18 23:23N 27°39' W 097°14'3 7.2
2018-Feb-18 23:00N 27°37' W 097°15'4 6.8
2018-Feb-18 22:26N 27°33' W 097°17'3 6.4
2018-Feb-18 21:54N 27°30' W 097°19'3 6.3
2018-Feb-18 21:29N 27°28' W 097°20'3 6.0
2018-Feb-18 20:56N 27°25' W 097°21'8 6.0
2018-Feb-18 19:41N 27°18' W 097°24'2 6.0
2018-Feb-18 19:26N 27°16' W 097°25'3 6.3
2018-Feb-18 18:59N 27°13' W 097°25'3 6.1
2018-Feb-18 18:26N 27°10' W 097°26'1 0.8
2018-Feb-18 17:42N 27°09' W 097°26'0 0.0
2018-Feb-18 17:16N 27°09' W 097°26'50 4.0
2018-Feb-18 04:32N 26°20' W 097°19'1 7.6
2018-Feb-18 04:25N 26°19' W 097°18'21 0.4
2018-Feb-16 04:51N 25°58' W 097°22'0 0.0
2018-Feb-16 04:20N 25°58' W 097°22'0 0.0
2018-Feb-16 04:00N 25°58' W 097°22'94 1.9
2018-Feb-14 01:14N 27°32' W 097°18'2 4.9
2018-Feb-14 00:55N 27°33' W 097°17'3 5.2
2018-Feb-14 00:24N 27°36' W 097°16'2 5.9
2018-Feb-14 00:00N 27°38' W 097°14'3 5.9
2018-Feb-13 23:30N 27°41' W 097°14'3 5.5
2018-Feb-13 22:59N 27°44' W 097°14'3 5.5
2018-Feb-13 22:30N 27°46' W 097°15'3 5.3
2018-Feb-13 21:57N 27°49' W 097°13'3 6.1
2018-Feb-13 21:29N 27°50' W 097°11'3 5.6
2018-Feb-13 20:59N 27°53' W 097°09'3 5.4
2018-Feb-13 20:30N 27°55' W 097°08'3 5.3
2018-Feb-13 20:00N 27°57' W 097°06'3 5.5
2018-Feb-13 19:27N 27°60' W 097°04'3 5.7
2018-Feb-13 18:59N 28°01' W 097°01'3 5.9
2018-Feb-13 18:29N 28°03' W 096°59'3 5.8
2018-Feb-13 17:58N 28°05' W 096°57'3 5.9
2018-Feb-13 17:30N 28°07' W 096°55'3 6.3
2018-Feb-13 16:59N 28°10' W 096°53'3 6.6
2018-Feb-13 16:30N 28°12' W 096°50'3 5.6
2018-Feb-13 15:59N 28°14' W 096°47'3 5.8
2018-Feb-13 15:30N 28°16' W 096°45'  
Track history (hours):
 
Tides and Currents Weather Stations Pressure Air Temp Water Temp Dewpoint Dewpoint Depression Visibility Wind Speed Wind Dir Waves Ship Positions

Catherine

Owner: BLESSEY ENTERPRISES INC, HARAHAN, LA. More information available from US FCC via Universal Licensing System.

Last reported at 2018-Feb-22 22:30 UTC. Time now 2018-Feb-22 22:57 UTC.
Position N 29°60' W 093°55'.

Length 21 m; draft 3.3 m.

Type: Tug. MMSI: 366935380.

Date/timePositionNaut miles runAvg speedWind from/ knotsBaromVisibWave heightAir tempDewpointWater temp
2018-Feb-22 22:30N 29°60' W 093°55'0 0.0
2018-Feb-22 22:00N 29°60' W 093°55'0 0.0
2018-Feb-22 21:30N 29°60' W 093°55'0 0.0
2018-Feb-22 21:00N 29°60' W 093°55'0 0.0
2018-Feb-22 20:30N 29°60' W 093°55'0 0.0
2018-Feb-22 20:00N 29°60' W 093°55'1 1.8
2018-Feb-22 19:30N 29°59' W 093°54'3 5.6
2018-Feb-22 19:01N 29°58' W 093°51'3 6.5
2018-Feb-22 18:30N 29°55' W 093°53'3 6.7
2018-Feb-22 18:00N 29°53' W 093°55'3 6.2
2018-Feb-22 17:30N 29°50' W 093°57'2 3.5
2018-Feb-22 17:00N 29°49' W 093°59'0 0.2
2018-Feb-22 16:30N 29°49' W 093°59'3 5.4
2018-Feb-22 16:00N 29°47' W 094°01'3 5.3
2018-Feb-22 15:30N 29°45' W 094°04'3 5.1
2018-Feb-22 15:00N 29°44' W 094°06'2 4.9
2018-Feb-22 14:30N 29°42' W 094°08'3 5.1
2018-Feb-22 14:00N 29°41' W 094°11'3 5.1
2018-Feb-22 13:30N 29°40' W 094°13'0 0.3
2018-Feb-22 13:00N 29°40' W 094°14'0 0.0
2018-Feb-22 12:30N 29°40' W 094°14'0 0.0
2018-Feb-22 12:00N 29°40' W 094°14'0 0.0
2018-Feb-22 11:30N 29°40' W 094°14'0 0.0
2018-Feb-22 11:00N 29°40' W 094°14'0 0.0
2018-Feb-22 10:30N 29°40' W 094°14'0 0.0
2018-Feb-22 10:00N 29°40' W 094°14'0 0.0
2018-Feb-22 09:30N 29°40' W 094°14'0 0.0
2018-Feb-22 09:00N 29°40' W 094°14'0 0.0
2018-Feb-22 08:30N 29°40' W 094°14'0 0.0
2018-Feb-22 08:00N 29°40' W 094°14'0 0.0
2018-Feb-22 07:30N 29°40' W 094°14'0 0.0
2018-Feb-22 07:00N 29°40' W 094°14'0 0.0
2018-Feb-22 06:30N 29°40' W 094°14'0 0.0
2018-Feb-22 06:00N 29°40' W 094°14'0 0.0
2018-Feb-22 05:30N 29°40' W 094°14'0 0.0
2018-Feb-22 05:00N 29°40' W 094°14'0 0.0
2018-Feb-22 04:30N 29°40' W 094°14'0 0.0
2018-Feb-22 04:01N 29°40' W 094°14'0 0.0
2018-Feb-22 03:30N 29°40' W 094°14'0 0.0
2018-Feb-22 03:00N 29°40' W 094°14'0 0.0
2018-Feb-22 02:30N 29°40' W 094°14'0 0.0
2018-Feb-22 02:00N 29°40' W 094°14'0 0.2
2018-Feb-22 01:30N 29°40' W 094°14'3 5.9
2018-Feb-22 01:00N 29°39' W 094°17'3 5.7
2018-Feb-22 00:28N 29°37' W 094°20'3 5.7
2018-Feb-21 23:53N 29°36' W 094°23'2 0.8
2018-Feb-21 22:03N 29°35' W 094°25'0 0.0
2018-Feb-21 21:54N 29°35' W 094°25'2 3.8
2018-Feb-21 21:24N 29°34' W 094°27'95 3.2
2018-Feb-20 15:39N 28°42' W 095°57'6 1.2
2018-Feb-20 10:39N 28°39' W 096°04'1 5.8
2018-Feb-20 10:30N 28°38' W 096°05'12 5.4
2018-Feb-20 08:15N 28°31' W 096°16'9 6.0
2018-Feb-20 06:50N 28°27' W 096°24'2 5.9
2018-Feb-20 06:26N 28°26' W 096°26'2 3.8
2018-Feb-20 05:58N 28°25' W 096°28'0 0.5
2018-Feb-20 05:30N 28°25' W 096°28'0 0.0
2018-Feb-20 04:55N 28°25' W 096°28'16 2.5
2018-Feb-19 22:46N 28°17' W 096°44'2 6.8
2018-Feb-19 22:28N 28°15' W 096°45'2 1.6
2018-Feb-19 20:59N 28°14' W 096°48'3 5.2
2018-Feb-19 20:30N 28°12' W 096°50'3 6.9
2018-Feb-19 20:00N 28°10' W 096°53'4 6.8
2018-Feb-19 19:29N 28°07' W 096°55'3 6.8
2018-Feb-19 18:59N 28°05' W 096°58'3 6.9
2018-Feb-19 18:30N 28°02' W 096°60'9 6.3
2018-Feb-19 17:05N 27°53' W 097°03'1 7.4
2018-Feb-19 17:00N 27°53' W 097°03'2 3.8
2018-Feb-19 16:30N 27°51' W 097°04'0 0.9
2018-Feb-19 15:59N 27°51' W 097°03'7 0.5
2018-Feb-19 01:40N 27°50' W 097°11'11 4.8
2018-Feb-18 23:23N 27°39' W 097°14'3 7.2
2018-Feb-18 23:00N 27°37' W 097°15'4 6.8
2018-Feb-18 22:26N 27°33' W 097°17'3 6.4
2018-Feb-18 21:54N 27°30' W 097°19'3 6.3
2018-Feb-18 21:29N 27°28' W 097°20'3 6.0
2018-Feb-18 20:56N 27°25' W 097°21'8 6.0
2018-Feb-18 19:41N 27°18' W 097°24'2 6.0
2018-Feb-18 19:26N 27°16' W 097°25'3 6.3
2018-Feb-18 18:59N 27°13' W 097°25'3 6.1
2018-Feb-18 18:26N 27°10' W 097°26'1 0.8
2018-Feb-18 17:42N 27°09' W 097°26'0 0.0
2018-Feb-18 17:16N 27°09' W 097°26'50 4.0
2018-Feb-18 04:32N 26°20' W 097°19'1 7.6
2018-Feb-18 04:25N 26°19' W 097°18'21 0.4
2018-Feb-16 04:51N 25°58' W 097°22'0 0.0
2018-Feb-16 04:20N 25°58' W 097°22'0 0.0
2018-Feb-16 04:00N 25°58' W 097°22'94 1.9
2018-Feb-14 01:14N 27°32' W 097°18'2 4.9
2018-Feb-14 00:55N 27°33' W 097°17'3 5.2
2018-Feb-14 00:24N 27°36' W 097°16'2 5.9
2018-Feb-14 00:00N 27°38' W 097°14'3 5.9
2018-Feb-13 23:30N 27°41' W 097°14'3 5.5
2018-Feb-13 22:59N 27°44' W 097°14'3 5.5
2018-Feb-13 22:30N 27°46' W 097°15'3 5.3
2018-Feb-13 21:57N 27°49' W 097°13'3 6.1
2018-Feb-13 21:29N 27°50' W 097°11'3 5.6
2018-Feb-13 20:59N 27°53' W 097°09'3 5.4
2018-Feb-13 20:30N 27°55' W 097°08'3 5.3
2018-Feb-13 20:00N 27°57' W 097°06'3 5.5
2018-Feb-13 19:27N 27°60' W 097°04'3 5.7
2018-Feb-13 18:59N 28°01' W 097°01'3 5.9
2018-Feb-13 18:29N 28°03' W 096°59'3 5.8
2018-Feb-13 17:58N 28°05' W 096°57'3 5.9
2018-Feb-13 17:30N 28°07' W 096°55'3 6.3
2018-Feb-13 16:59N 28°10' W 096°53'3 6.6
2018-Feb-13 16:30N 28°12' W 096°50'3 5.6
2018-Feb-13 15:59N 28°14' W 096°47'3 5.8
2018-Feb-13 15:30N 28°16' W 096°45'  

Dump ship's entire track history